Nearby METAR Reports

 

KSJC - San Jose, California, USA
Distance from station: NE 9mi, 14km
Updated: Sun, 01-Aug-2021 5:53pm EDT
Few Clouds
Few Clouds
 Wind from NNW
Wind: NNW 10 mph , 17 km/h
Temperature: 77°F , 25°C
Dew Point: 57°F , 14°C
Humidity: 51%
Barometer: 30.04 inHg , 1017.3 hPa
Clouds: Few Clouds
Visibility: 10 miles , 16 km
Cloud details: Few Clouds 4000 ft
2021/08/01 21:53 KSJC 012153Z 33009KT 10SM FEW040 25/14 A3004 RMK AO2 SLP170 T02500139
KNUQ - Moffett Nas/Mtn, California, USA
Distance from station: N 9mi, 14km
Updated: Sun, 01-Aug-2021 6:15pm EDT
Clear
Clear
 Wind from N
Wind: N 17 mph , 28 km/h
Temperature: 73°F , 23°C
Dew Point: 57°F , 14°C
Humidity: 57%
Barometer: 30.04 inHg , 1017.3 hPa
Clouds: Clear
Visibility: 10 miles , 16 km
2021/08/01 22:15 KNUQ 012215Z AUTO 35015KT 10SM CLR 23/14 A3004 RMK AO2
 
KPAO - Palo Alto, California, USA
Distance from station: NNW 14mi, 23km
Updated: Sun, 01-Aug-2021 5:47pm EDT
Clear
Clear
 Wind from N
Wind: N 17 mph , 28 km/h
Temperature: 73°F , 23°C
Dew Point: 59°F , 15°C
Humidity: 61%
Barometer: 30.05 inHg , 1017.6 hPa
Clouds: Clear
Visibility: 10 miles , 16 km
2021/08/01 21:47 KPAO 012147Z 35015KT 10SM SKC 23/15 A3005
KRHV - San Jose/Reid, California, USA
Distance from station: ENE 12mi, 19km
Updated: Sun, 01-Aug-2021 5:47pm EDT
Clear
Clear
 Wind from NW
Wind: NW 12 mph , 19 km/h
Temperature: 79°F , 26°C
Dew Point: 57°F , 14°C
Humidity: 48%
Barometer: 30.04 inHg , 1017.3 hPa
Clouds: Clear
Visibility: 10 miles , 16 km
2021/08/01 21:47 KRHV 012147Z 32010KT 10SM SKC 26/14 A3004
 
KOAK - Oakland, California, USA
Distance from station: NNW 31mi, 50km
Updated: Sun, 01-Aug-2021 5:53pm EDT
Few Clouds
Few Clouds
 Wind from WNW
Wind: WNW 18 mph , 30 km/h
Temperature: 72°F , 22°C
Dew Point: 55°F , 13°C
Humidity: 57%
Barometer: 30.07 inHg , 1018.3 hPa
Clouds: Few Clouds
Visibility: 10 miles , 16 km
Cloud details: Few Clouds 1200 ft
Few Clouds 18000 ft
2021/08/01 21:53 KOAK 012153Z 29016KT 10SM FEW012 FEW180 22/13 A3007 RMK AO2 SLP183 T02220128
KSQL - San Carlos Airpo, California, USA
Distance from station: NW 21mi, 34km
Updated: Sun, 01-Aug-2021 5:58pm EDT
Few Clouds
Few Clouds
 Wind from W
Wind: W 13 mph , 20 km/h
Temperature: 73°F , 23°C
Dew Point: 55°F , 13°C
Humidity: 53%
Barometer: 30.05 inHg , 1017.6 hPa
Clouds: Few Clouds
Visibility: 10 miles , 16 km
Cloud details: Few Clouds 1000 ft
2021/08/01 21:58 KSQL 012158Z 26011KT 10SM FEW010 23/13 A3005
 
KSFO - San Francisco, California, USA
Distance from station: NW 30mi, 49km
Updated: Sun, 01-Aug-2021 5:56pm EDT
Few Clouds
Few Clouds
 Wind from W
Wind: W 16 mph , 26 km/h
Temperature: 73°F , 23°C
Dew Point: 54°F , 12°C
Humidity: 50%
Barometer: 30.06 inHg , 1017.9 hPa
Clouds: Few Clouds
Visibility: 10 miles , 16 km
Cloud details: Few Clouds 2300 ft
Few Clouds 18000 ft
2021/08/01 21:56 KSFO 012156Z 28014KT 10SM FEW023 FEW180 23/12 A3006 RMK AO2 SLP178 T02280122 $
KE16 - San Martin, California, USA
Distance from station: ESE 27mi, 43km
Updated: Sun, 01-Aug-2021 6:15pm EDT
Clear
Clear
 Wind from S
Wind: S 10 mph , 17 km/h, Gust: 16 mph , 26 km/h
Temperature: 81°F , 27°C
Heat Index: 81°F , 27°C
Dew Point: 55°F , 13°C
Humidity: 42%
Barometer: 30.04 inHg , 1017.3 hPa
Clouds: Clear
Visibility: 10 miles , 16 km
2021/08/01 22:15 KE16 012215Z AUTO 17009G14KT 10SM CLR 27/13 A3004 RMK AO2 PWINO PNO
 
KWVI - Watsonville, California, USA
Distance from station: SSE 27mi, 44km
Updated: Sun, 01-Aug-2021 5:53pm EDT
Clear
Clear
 Wind from W
Wind: W 12 mph , 19 km/h, Gust: 16 mph , 26 km/h
Temperature: 70°F , 21°C
Dew Point: 55°F , 13°C
Humidity: 60%
Barometer: 30.09 inHg , 1019 hPa
Clouds: Clear
Visibility: 10 miles , 16 km
2021/08/01 21:53 KWVI 012153Z AUTO 27010G14KT 10SM CLR 21/13 A3009 RMK AO2 SLP190 T02110128
KHAF - Half Moon Bay, California, USA
Distance from station: WNW 31mi, 50km
Updated: Fri, 09-Jul-2021 10:35am EDT
NOT Current
Light rain, Clear
Light rain, Clear
 
Temperature: 55°F , 13°C
Dew Point: 54°F , 12°C
Humidity: 94%
Barometer: 29.91 inHg , 1012.9 hPa
Summary: Light rain
Clouds: Clear
Visibility: 4 miles , 6 km
2021/07/09 14:35 KHAF 091435Z AUTO 4SM -RA CLR 13/12 A2991 RMK AO2
 
KHWD - Hayward, California, USA
Distance from station: N 28mi, 44km
Updated: Sun, 01-Aug-2021 5:54pm EDT
Clear
Clear
 Wind from WNW
Wind: WNW 16 mph , 26 km/h
Temperature: 72°F , 22°C
Dew Point: 55°F , 13°C
Humidity: 57%
Barometer: 30.06 inHg , 1017.9 hPa
Clouds: Clear
Visibility: 10 miles , 16 km
2021/08/01 21:54 KHWD 012154Z 30014KT 10SM CLR 22/13 A3006 RMK AO2 SLP187 T02220128
KLVK - Livermore, California, USA
Distance from station: NNE 31mi, 51km
Updated: Sun, 01-Aug-2021 5:53pm EDT
Clear
Clear
 Wind from WNW
Wind: WNW 16 mph , 26 km/h
Temperature: 84°F , 29°C
Dew Point: 52°F , 11°C
Humidity: 33%
Barometer: 30.01 inHg , 1016.3 hPa
Clouds: Clear
Visibility: 10 miles , 16 km
2021/08/01 21:53 KLVK 012153Z 29014KT 10SM CLR 29/11 A3001 RMK AO2 SLP157 T02890111